sensor_id;sensor_type;location;lat;lon;timestamp;pressure;altitude;pressure_sealevel;temperature;humidity
31239;BME280;17871;31.584;74.450;2023-04-06T00:00:19;98605.25;;;19.62;76.76
31239;BME280;17871;31.584;74.450;2023-04-06T00:02:50;98600.25;;;19.54;77.57
31239;BME280;17871;31.584;74.450;2023-04-06T00:05:21;98599.38;;;19.55;77.71
31239;BME280;17871;31.584;74.450;2023-04-06T00:07:51;98618.47;;;19.51;77.89
31239;BME280;17871;31.584;74.450;2023-04-06T00:10:22;98619.19;;;19.56;77.88
31239;BME280;17871;31.584;74.450;2023-04-06T00:12:52;98621.16;;;19.48;78.83
31239;BME280;17871;31.584;74.450;2023-04-06T00:15:21;98618.59;;;19.47;78.15
31239;BME280;17871;31.584;74.450;2023-04-06T00:17:50;98615.09;;;19.49;77.90
31239;BME280;17871;31.584;74.450;2023-04-06T00:20:19;98615.13;;;19.48;77.95
31239;BME280;17871;31.584;74.450;2023-04-06T00:22:48;98615.81;;;19.54;78.29
31239;BME280;17871;31.584;74.450;2023-04-06T00:25:18;98620.13;;;19.54;78.48
31239;BME280;17871;31.584;74.450;2023-04-06T00:27:47;98619.28;;;19.53;79.02
31239;BME280;17871;31.584;74.450;2023-04-06T00:30:16;98627.28;;;19.44;79.55
31239;BME280;17871;31.584;74.450;2023-04-06T00:32:45;98627.28;;;19.46;79.11
31239;BME280;17871;31.584;74.450;2023-04-06T00:35:14;98627.22;;;19.47;78.89
31239;BME280;17871;31.584;74.450;2023-04-06T00:37:46;98629.66;;;19.53;78.91
31239;BME280;17871;31.584;74.450;2023-04-06T00:40:16;98633.44;;;19.40;79.25
31239;BME280;17871;31.584;74.450;2023-04-06T00:42:46;98639.44;;;19.42;80.11
31239;BME280;17871;31.584;74.450;2023-04-06T00:45:15;98638.50;;;19.45;80.48
31239;BME280;17871;31.584;74.450;2023-04-06T00:47:44;98625.41;;;19.51;80.12
31239;BME280;17871;31.584;74.450;2023-04-06T00:50:13;98643.66;;;19.46;80.09
31239;BME280;17871;31.584;74.450;2023-04-06T00:52:42;98648.91;;;19.43;79.81
31239;BME280;17871;31.584;74.450;2023-04-06T00:55:12;98651.50;;;19.43;80.94
31239;BME280;17871;31.584;74.450;2023-04-06T00:57:43;98655.88;;;19.41;80.52
31239;BME280;17871;31.584;74.450;2023-04-06T01:00:13;98655.16;;;19.35;80.98
31239;BME280;17871;31.584;74.450;2023-04-06T01:02:44;98660.25;;;19.38;80.55
31239;BME280;17871;31.584;74.450;2023-04-06T01:05:18;98657.50;;;19.45;80.54
31239;BME280;17871;31.584;74.450;2023-04-06T01:07:55;98662.78;;;19.42;80.19
31239;BME280;17871;31.584;74.450;2023-04-06T01:10:27;98665.78;;;19.59;79.88
31239;BME280;17871;31.584;74.450;2023-04-06T01:13:12;98673.00;;;19.47;81.05
31239;BME280;17871;31.584;74.450;2023-04-06T01:16:02;98669.28;;;19.58;79.64
31239;BME280;17871;31.584;74.450;2023-04-06T01:18:51;98666.63;;;19.61;79.90
31239;BME280;17871;31.584;74.450;2023-04-06T01:21:28;98676.09;;;19.62;80.47
31239;BME280;17871;31.584;74.450;2023-04-06T01:24:17;98674.25;;;19.67;79.90
31239;BME280;17871;31.584;74.450;2023-04-06T01:27:18;98675.94;;;19.68;80.24
31239;BME280;17871;31.584;74.450;2023-04-06T01:30:19;98682.75;;;19.73;81.04
31239;BME280;17871;31.584;74.450;2023-04-06T01:32:56;98682.69;;;19.76;79.82
31239;BME280;17871;31.584;74.450;2023-04-06T01:35:45;98688.50;;;19.85;78.81
31239;BME280;17871;31.584;74.450;2023-04-06T01:38:18;98678.06;;;19.87;79.51
31239;BME280;17871;31.584;74.450;2023-04-06T01:40:48;98677.81;;;19.96;78.78
31239;BME280;17871;31.584;74.450;2023-04-06T01:43:21;98688.88;;;20.04;78.95
31239;BME280;17871;31.584;74.450;2023-04-06T01:46:20;98700.63;;;20.17;78.41
31239;BME280;17871;31.584;74.450;2023-04-06T01:48:50;98697.84;;;20.25;78.26
31239;BME280;17871;31.584;74.450;2023-04-06T01:51:32;98695.03;;;20.34;77.11
31239;BME280;17871;31.584;74.450;2023-04-06T01:54:03;98698.22;;;20.43;76.91
31239;BME280;17871;31.584;74.450;2023-04-06T01:56:55;98699.66;;;20.53;76.32
31239;BME280;17871;31.584;74.450;2023-04-06T01:59:31;98695.06;;;20.63;76.00
31239;BME280;17871;31.584;74.450;2023-04-06T02:02:07;98696.47;;;20.75;75.64
31239;BME280;17871;31.584;74.450;2023-04-06T02:04:38;98699.66;;;20.84;75.63
31239;BME280;17871;31.584;74.450;2023-04-06T02:07:11;98700.31;;;20.91;75.35
31239;BME280;17871;31.584;74.450;2023-04-06T02:09:40;98708.63;;;21.02;75.04
31239;BME280;17871;31.584;74.450;2023-04-06T02:12:15;98710.97;;;21.11;74.58
31239;BME280;17871;31.584;74.450;2023-04-06T02:14:45;98722.78;;;21.23;74.13
31239;BME280;17871;31.584;74.450;2023-04-06T02:17:14;98728.53;;;21.32;73.84
31239;BME280;17871;31.584;74.450;2023-04-06T02:19:43;98729.16;;;21.40;73.09
31239;BME280;17871;31.584;74.450;2023-04-06T02:22:12;98739.38;;;21.46;72.88
31239;BME280;17871;31.584;74.450;2023-04-06T02:24:41;98743.38;;;21.56;73.30
31239;BME280;17871;31.584;74.450;2023-04-06T02:27:10;98736.19;;;21.64;73.01
31239;BME280;17871;31.584;74.450;2023-04-06T02:29:39;98741.94;;;21.74;72.38
31239;BME280;17871;31.584;74.450;2023-04-06T02:32:08;98742.47;;;21.84;73.18
31239;BME280;17871;31.584;74.450;2023-04-06T02:34:38;98740.72;;;21.86;72.39
31239;BME280;17871;31.584;74.450;2023-04-06T02:37:07;98754.22;;;21.97;71.92
31239;BME280;17871;31.584;74.450;2023-04-06T02:39:36;98747.03;;;22.05;71.54
31239;BME280;17871;31.584;74.450;2023-04-06T02:42:08;98754.53;;;22.14;71.70
31239;BME280;17871;31.584;74.450;2023-04-06T02:44:37;98762.00;;;22.23;71.36
31239;BME280;17871;31.584;74.450;2023-04-06T02:47:08;98760.97;;;22.29;70.57
31239;BME280;17871;31.584;74.450;2023-04-06T02:49:39;98763.25;;;22.38;69.99
31239;BME280;17871;31.584;74.450;2023-04-06T02:52:09;98771.72;;;22.44;68.94
31239;BME280;17871;31.584;74.450;2023-04-06T02:54:37;98768.84;;;22.52;68.11
31239;BME280;17871;31.584;74.450;2023-04-06T02:57:07;98774.47;;;22.64;67.14
31239;BME280;17871;31.584;74.450;2023-04-06T02:59:40;98765.34;;;22.78;66.97
31239;BME280;17871;31.584;74.450;2023-04-06T03:02:25;98763.31;;;22.86;66.59
31239;BME280;17871;31.584;74.450;2023-04-06T03:05:03;98766.44;;;22.95;65.53
31239;BME280;17871;31.584;74.450;2023-04-06T03:07:37;98767.00;;;23.03;64.99
31239;BME280;17871;31.584;74.450;2023-04-06T03:10:11;98775.16;;;23.17;65.81
31239;BME280;17871;31.584;74.450;2023-04-06T03:12:40;98772.25;;;23.25;65.03
31239;BME280;17871;31.584;74.450;2023-04-06T03:15:20;98772.16;;;23.28;63.30
31239;BME280;17871;31.584;74.450;2023-04-06T03:17:59;98772.59;;;23.39;61.82
31239;BME280;17871;31.584;74.450;2023-04-06T03:20:36;98780.03;;;23.50;58.84
31239;BME280;17871;31.584;74.450;2023-04-06T03:23:06;98779.38;;;23.66;60.70
31239;BME280;17871;31.584;74.450;2023-04-06T03:25:39;98779.88;;;23.76;61.34
31239;BME280;17871;31.584;74.450;2023-04-06T03:28:13;98793.47;;;23.84;60.22
31239;BME280;17871;31.584;74.450;2023-04-06T03:31:03;98790.34;;;23.96;58.97
31239;BME280;17871;31.584;74.450;2023-04-06T03:33:58;98802.84;;;24.10;58.48
31239;BME280;17871;31.584;74.450;2023-04-06T03:36:31;98798.19;;;24.18;57.17
31239;BME280;17871;31.584;74.450;2023-04-06T03:39:02;98798.53;;;24.31;56.54
31239;BME280;17871;31.584;74.450;2023-04-06T03:41:35;98799.97;;;24.38;54.66
31239;BME280;17871;31.584;74.450;2023-04-06T03:44:12;98804.63;;;24.51;55.54
31239;BME280;17871;31.584;74.450;2023-04-06T03:46:43;98801.81;;;24.56;55.80
31239;BME280;17871;31.584;74.450;2023-04-06T03:49:13;98802.31;;;24.64;54.43
31239;BME280;17871;31.584;74.450;2023-04-06T03:51:45;98807.69;;;24.81;55.34
31239;BME280;17871;31.584;74.450;2023-04-06T03:54:14;98813.47;;;24.89;55.13
31239;BME280;17871;31.584;74.450;2023-04-06T03:56:44;98806.25;;;24.94;54.08
31239;BME280;17871;31.584;74.450;2023-04-06T03:59:13;98820.44;;;25.09;54.36
31239;BME280;17871;31.584;74.450;2023-04-06T04:01:42;98822.09;;;25.10;53.21
31239;BME280;17871;31.584;74.450;2023-04-06T04:04:11;98830.34;;;25.21;53.41
31239;BME280;17871;31.584;74.450;2023-04-06T04:06:40;98826.25;;;25.34;52.74
31239;BME280;17871;31.584;74.450;2023-04-06T04:09:09;98830.91;;;25.46;52.88
31239;BME280;17871;31.584;74.450;2023-04-06T04:11:38;98833.34;;;25.51;52.31
31239;BME280;17871;31.584;74.450;2023-04-06T04:14:07;98832.78;;;25.63;51.87
31239;BME280;17871;31.584;74.450;2023-04-06T04:16:36;98833.34;;;25.69;51.39
31239;BME280;17871;31.584;74.450;2023-04-06T04:19:05;98838.13;;;25.78;50.98
31239;BME280;17871;31.584;74.450;2023-04-06T04:21:45;98836.78;;;25.89;50.26
31239;BME280;17871;31.584;74.450;2023-04-06T04:24:19;98838.34;;;25.93;50.18
31239;BME280;17871;31.584;74.450;2023-04-06T04:26:48;98846.03;;;25.96;48.63
31239;BME280;17871;31.584;74.450;2023-04-06T04:29:18;98843.06;;;26.03;48.60
31239;BME280;17871;31.584;74.450;2023-04-06T04:31:51;98848.72;;;26.13;48.88
31239;BME280;17871;31.584;74.450;2023-04-06T04:34:21;98852.75;;;26.20;47.78
31239;BME280;17871;31.584;74.450;2023-04-06T04:36:53;98841.66;;;26.32;47.73
31239;BME280;17871;31.584;74.450;2023-04-06T04:39:33;98843.44;;;26.31;47.12
31239;BME280;17871;31.584;74.450;2023-04-06T04:42:05;98839.28;;;26.45;47.44
31239;BME280;17871;31.584;74.450;2023-04-06T04:44:39;98845.91;;;26.52;47.02
31239;BME280;17871;31.584;74.450;2023-04-06T04:51:09;98847.38;;;26.74;46.21
31239;BME280;17871;31.584;74.450;2023-04-06T04:54:03;98851.56;;;26.61;44.13
31239;BME280;17871;31.584;74.450;2023-04-06T04:56:33;98852.06;;;26.87;44.40
31239;BME280;17871;31.584;74.450;2023-04-06T04:59:20;98854.50;;;27.07;44.77
31239;BME280;17871;31.584;74.450;2023-04-06T05:01:57;98855.78;;;27.15;45.91
31239;BME280;17871;31.584;74.450;2023-04-06T05:04:37;98861.84;;;27.33;46.48
31239;BME280;17871;31.584;74.450;2023-04-06T05:07:10;98860.66;;;27.39;45.72
31239;BME280;17871;31.584;74.450;2023-04-06T05:09:41;98863.50;;;27.34;43.63
31239;BME280;17871;31.584;74.450;2023-04-06T05:12:11;98861.78;;;27.50;44.27
31239;BME280;17871;31.584;74.450;2023-04-06T05:14:53;98865.03;;;27.55;43.52
31239;BME280;17871;31.584;74.450;2023-04-06T05:17:24;98868.84;;;27.50;42.86
31239;BME280;17871;31.584;74.450;2023-04-06T05:19:54;98867.84;;;27.35;42.66
31239;BME280;17871;31.584;74.450;2023-04-06T05:22:26;98863.00;;;27.27;42.89
31239;BME280;17871;31.584;74.450;2023-04-06T05:25:05;98861.03;;;27.64;43.83
31239;BME280;17871;31.584;74.450;2023-04-06T05:27:35;98863.44;;;27.68;42.75
31239;BME280;17871;31.584;74.450;2023-04-06T05:30:10;98864.13;;;27.88;44.80
31239;BME280;17871;31.584;74.450;2023-04-06T05:32:45;98868.84;;;27.97;44.99
31239;BME280;17871;31.584;74.450;2023-04-06T05:35:15;98865.28;;;27.98;44.98
31239;BME280;17871;31.584;74.450;2023-04-06T05:37:48;98860.03;;;27.98;44.34
31239;BME280;17871;31.584;74.450;2023-04-06T05:40:21;98864.94;;;28.04;44.61
31239;BME280;17871;31.584;74.450;2023-04-06T05:42:51;98863.97;;;28.22;44.09
31239;BME280;17871;31.584;74.450;2023-04-06T05:45:20;98866.97;;;28.30;45.58
31239;BME280;17871;31.584;74.450;2023-04-06T05:47:54;98869.34;;;28.34;44.78
31239;BME280;17871;31.584;74.450;2023-04-06T05:50:28;98869.41;;;28.19;43.94
31239;BME280;17871;31.584;74.450;2023-04-06T05:52:58;98877.75;;;28.41;44.01
31239;BME280;17871;31.584;74.450;2023-04-06T05:55:33;98869.84;;;28.41;43.57
31239;BME280;17871;31.584;74.450;2023-04-06T05:58:25;98878.16;;;28.33;43.56
31239;BME280;17871;31.584;74.450;2023-04-06T06:01:06;98867.59;;;28.65;43.68
31239;BME280;17871;31.584;74.450;2023-04-06T06:03:40;98863.25;;;28.34;42.47
31239;BME280;17871;31.584;74.450;2023-04-06T06:06:09;98855.72;;;28.58;42.24
31239;BME280;17871;31.584;74.450;2023-04-06T06:08:57;98854.94;;;28.71;43.11
31239;BME280;17871;31.584;74.450;2023-04-06T06:11:37;98852.63;;;28.81;43.37
31239;BME280;17871;31.584;74.450;2023-04-06T06:14:06;98855.88;;;28.70;42.49
31239;BME280;17871;31.584;74.450;2023-04-06T06:16:39;98856.00;;;28.83;43.35
31239;BME280;17871;31.584;74.450;2023-04-06T06:19:12;98856.50;;;29.18;43.39
31239;BME280;17871;31.584;74.450;2023-04-06T06:21:43;98848.41;;;29.07;42.43
31239;BME280;17871;31.584;74.450;2023-04-06T06:24:12;98851.53;;;29.13;41.49
31239;BME280;17871;31.584;74.450;2023-04-06T06:26:42;98851.81;;;28.95;42.75
31239;BME280;17871;31.584;74.450;2023-04-06T06:29:13;98847.84;;;29.16;42.73
31239;BME280;17871;31.584;74.450;2023-04-06T06:31:43;98851.59;;;29.12;43.26
31239;BME280;17871;31.584;74.450;2023-04-06T06:34:13;98845.63;;;29.24;42.42
31239;BME280;17871;31.584;74.450;2023-04-06T06:36:43;98848.59;;;29.04;41.71
31239;BME280;17871;31.584;74.450;2023-04-06T06:39:15;98833.88;;;29.44;42.77
31239;BME280;17871;31.584;74.450;2023-04-06T06:41:45;98849.00;;;29.26;42.92
31239;BME280;17871;31.584;74.450;2023-04-06T06:44:15;98844.28;;;29.45;42.37
31239;BME280;17871;31.584;74.450;2023-04-06T06:46:45;98841.66;;;29.31;41.95
31239;BME280;17871;31.584;74.450;2023-04-06T06:49:14;98834.41;;;29.34;42.29
31239;BME280;17871;31.584;74.450;2023-04-06T06:51:44;98839.28;;;29.12;43.22
31239;BME280;17871;31.584;74.450;2023-04-06T06:54:15;98833.56;;;29.48;43.46
31239;BME280;17871;31.584;74.450;2023-04-06T06:56:45;98836.59;;;29.42;43.28
31239;BME280;17871;31.584;74.450;2023-04-06T06:59:14;98847.31;;;29.53;42.98
31239;BME280;17871;31.584;74.450;2023-04-06T07:01:45;98839.56;;;29.22;43.00
31239;BME280;17871;31.584;74.450;2023-04-06T07:04:14;98840.94;;;29.29;42.77
31239;BME280;17871;31.584;74.450;2023-04-06T07:06:44;98831.38;;;29.69;42.96
31239;BME280;17871;31.584;74.450;2023-04-06T07:09:14;98832.97;;;29.85;43.37
31239;BME280;17871;31.584;74.450;2023-04-06T07:11:43;98828.47;;;29.73;42.13
31239;BME280;17871;31.584;74.450;2023-04-06T07:14:16;98839.94;;;29.87;43.94
31239;BME280;17871;31.584;74.450;2023-04-06T07:16:46;98826.91;;;29.98;43.06
31239;BME280;17871;31.584;74.450;2023-04-06T07:19:18;98840.28;;;29.95;42.06
31239;BME280;17871;31.584;74.450;2023-04-06T07:21:47;98831.22;;;29.99;41.02
31239;BME280;17871;31.584;74.450;2023-04-06T07:24:18;98829.84;;;29.79;40.33
31239;BME280;17871;31.584;74.450;2023-04-06T07:26:47;98830.31;;;30.00;41.80
31239;BME280;17871;31.584;74.450;2023-04-06T07:29:16;98828.91;;;29.80;42.29
31239;BME280;17871;31.584;74.450;2023-04-06T07:31:47;98825.59;;;29.91;40.70
31239;BME280;17871;31.584;74.450;2023-04-06T07:34:18;98824.22;;;30.12;42.54
31239;BME280;17871;31.584;74.450;2023-04-06T07:36:47;98819.69;;;30.14;40.74
31239;BME280;17871;31.584;74.450;2023-04-06T07:39:17;98825.63;;;30.30;40.13
31239;BME280;17871;31.584;74.450;2023-04-06T07:41:46;98817.72;;;30.30;41.58
31239;BME280;17871;31.584;74.450;2023-04-06T07:44:16;98808.81;;;30.06;37.19
31239;BME280;17871;31.584;74.450;2023-04-06T07:46:46;98809.84;;;30.03;39.13
31239;BME280;17871;31.584;74.450;2023-04-06T07:49:16;98808.88;;;30.31;38.80
31239;BME280;17871;31.584;74.450;2023-04-06T07:51:46;98809.44;;;30.09;34.19
31239;BME280;17871;31.584;74.450;2023-04-06T07:54:15;98810.09;;;30.13;34.44
31239;BME280;17871;31.584;74.450;2023-04-06T07:56:45;98810.84;;;30.54;37.13
31239;BME280;17871;31.584;74.450;2023-04-06T07:59:15;98807.47;;;30.52;37.49
31239;BME280;17871;31.584;74.450;2023-04-06T08:01:45;98806.22;;;30.31;35.85
31239;BME280;17871;31.584;74.450;2023-04-06T08:04:14;98805.28;;;30.32;36.32
31239;BME280;17871;31.584;74.450;2023-04-06T08:06:44;98798.28;;;30.45;38.85
31239;BME280;17871;31.584;74.450;2023-04-06T08:09:13;98785.97;;;30.31;34.29
31239;BME280;17871;31.584;74.450;2023-04-06T08:11:43;98792.25;;;30.43;35.92
31239;BME280;17871;31.584;74.450;2023-04-06T08:14:13;98792.72;;;30.62;34.55
31239;BME280;17871;31.584;74.450;2023-04-06T08:16:44;98787.00;;;30.68;35.35
31239;BME280;17871;31.584;74.450;2023-04-06T08:19:14;98783.13;;;30.34;35.75
31239;BME280;17871;31.584;74.450;2023-04-06T08:21:46;98784.66;;;30.12;35.61
31239;BME280;17871;31.584;74.450;2023-04-06T08:24:16;98784.81;;;30.62;36.00
31239;BME280;17871;31.584;74.450;2023-04-06T08:26:45;98780.03;;;30.55;36.25
31239;BME280;17871;31.584;74.450;2023-04-06T08:29:15;98780.47;;;30.74;36.78
31239;BME280;17871;31.584;74.450;2023-04-06T08:31:45;98771.41;;;30.65;36.25
31239;BME280;17871;31.584;74.450;2023-04-06T08:34:14;98762.94;;;30.73;37.61
31239;BME280;17871;31.584;74.450;2023-04-06T08:36:43;98767.91;;;30.52;36.16
31239;BME280;17871;31.584;74.450;2023-04-06T08:39:14;98764.41;;;30.64;36.37
31239;BME280;17871;31.584;74.450;2023-04-06T08:41:44;98766.00;;;30.42;35.95
31239;BME280;17871;31.584;74.450;2023-04-06T08:44:14;98765.06;;;30.68;36.34
31239;BME280;17871;31.584;74.450;2023-04-06T08:46:44;98761.56;;;30.80;34.22
31239;BME280;17871;31.584;74.450;2023-04-06T08:49:14;98760.72;;;30.92;33.94
31239;BME280;17871;31.584;74.450;2023-04-06T08:51:47;98759.91;;;30.79;34.30
31239;BME280;17871;31.584;74.450;2023-04-06T08:54:20;98756.72;;;30.74;34.01
31239;BME280;17871;31.584;74.450;2023-04-06T08:56:50;98748.06;;;30.84;32.83
31239;BME280;17871;31.584;74.450;2023-04-06T08:59:21;98752.06;;;30.77;33.23
31239;BME280;17871;31.584;74.450;2023-04-06T09:01:53;98735.59;;;30.61;32.29
31239;BME280;17871;31.584;74.450;2023-04-06T09:04:24;98731.25;;;30.73;33.61
31239;BME280;17871;31.584;74.450;2023-04-06T09:07:01;98727.59;;;30.75;34.47
31239;BME280;17871;31.584;74.450;2023-04-06T09:09:30;98720.28;;;30.92;33.98
31239;BME280;17871;31.584;74.450;2023-04-06T09:12:00;98719.44;;;31.04;34.64
31239;BME280;17871;31.584;74.450;2023-04-06T09:14:38;98715.56;;;30.71;35.00
31239;BME280;17871;31.584;74.450;2023-04-06T09:17:08;98711.00;;;30.73;35.77
31239;BME280;17871;31.584;74.450;2023-04-06T09:19:47;98704.31;;;31.06;35.75
31239;BME280;17871;31.584;74.450;2023-04-06T09:22:17;98697.38;;;30.79;34.61
31239;BME280;17871;31.584;74.450;2023-04-06T09:24:49;98702.13;;;30.87;36.97
31239;BME280;17871;31.584;74.450;2023-04-06T09:27:35;98694.28;;;31.11;36.79
31239;BME280;17871;31.584;74.450;2023-04-06T09:30:08;98693.88;;;31.04;36.95
31239;BME280;17871;31.584;74.450;2023-04-06T09:32:46;98693.44;;;31.10;36.96
31239;BME280;17871;31.584;74.450;2023-04-06T09:35:16;98696.22;;;30.83;37.15
31239;BME280;17871;31.584;74.450;2023-04-06T09:37:47;98684.81;;;30.70;35.70
31239;BME280;17871;31.584;74.450;2023-04-06T09:40:18;98681.97;;;30.73;35.92
31239;BME280;17871;31.584;74.450;2023-04-06T09:42:51;98674.34;;;30.94;36.53
31239;BME280;17871;31.584;74.450;2023-04-06T09:45:21;98675.53;;;30.77;36.58
31239;BME280;17871;31.584;74.450;2023-04-06T09:47:51;98667.72;;;30.63;35.25
31239;BME280;17871;31.584;74.450;2023-04-06T09:50:23;98667.09;;;30.60;37.01
31239;BME280;17871;31.584;74.450;2023-04-06T09:53:04;98655.16;;;30.67;36.22
31239;BME280;17871;31.584;74.450;2023-04-06T09:55:45;98646.41;;;30.66;36.27
31239;BME280;17871;31.584;74.450;2023-04-06T09:58:19;98647.69;;;30.61;35.81
31239;BME280;17871;31.584;74.450;2023-04-06T10:01:13;98644.97;;;30.62;37.08
31239;BME280;17871;31.584;74.450;2023-04-06T10:04:01;98647.47;;;30.64;37.85
31239;BME280;17871;31.584;74.450;2023-04-06T10:06:37;98639.03;;;30.59;38.24
31239;BME280;17871;31.584;74.450;2023-04-06T10:09:08;98642.84;;;30.55;37.52
31239;BME280;17871;31.584;74.450;2023-04-06T10:11:38;98634.22;;;30.53;37.00
31239;BME280;17871;31.584;74.450;2023-04-06T10:14:07;98633.53;;;30.36;39.06
31239;BME280;17871;31.584;74.450;2023-04-06T10:16:38;98632.31;;;30.42;38.48
31239;BME280;17871;31.584;74.450;2023-04-06T10:19:15;98637.56;;;30.55;38.76
31239;BME280;17871;31.584;74.450;2023-04-06T10:21:48;98631.44;;;30.29;37.67
31239;BME280;17871;31.584;74.450;2023-04-06T10:24:20;98633.25;;;30.16;37.92
31239;BME280;17871;31.584;74.450;2023-04-06T10:27:02;98630.19;;;30.47;37.52
31239;BME280;17871;31.584;74.450;2023-04-06T10:29:45;98630.50;;;30.55;37.90
31239;BME280;17871;31.584;74.450;2023-04-06T10:32:17;98629.75;;;30.53;37.46
31239;BME280;17871;31.584;74.450;2023-04-06T10:34:46;98624.59;;;30.39;37.63
31239;BME280;17871;31.584;74.450;2023-04-06T10:37:16;98621.09;;;30.13;36.67
31239;BME280;17871;31.584;74.450;2023-04-06T10:39:52;98619.41;;;30.50;37.59
31239;BME280;17871;31.584;74.450;2023-04-06T10:42:39;98618.91;;;30.45;37.01
31239;BME280;17871;31.584;74.450;2023-04-06T10:45:19;98614.13;;;30.37;36.93
31239;BME280;17871;31.584;74.450;2023-04-06T10:47:52;98612.69;;;30.46;37.55
31239;BME280;17871;31.584;74.450;2023-04-06T10:50:22;98605.91;;;30.29;35.96
31239;BME280;17871;31.584;74.450;2023-04-06T10:53:02;98604.00;;;30.31;38.25
31239;BME280;17871;31.584;74.450;2023-04-06T10:55:33;98608.13;;;30.23;38.06
31239;BME280;17871;31.584;74.450;2023-04-06T10:58:06;98600.09;;;30.37;37.85
31239;BME280;17871;31.584;74.450;2023-04-06T11:00:44;98605.38;;;30.24;37.64
31239;BME280;17871;31.584;74.450;2023-04-06T11:03:18;98596.75;;;30.22;37.63
31239;BME280;17871;31.584;74.450;2023-04-06T11:05:49;98598.09;;;30.28;35.17
31239;BME280;17871;31.584;74.450;2023-04-06T11:08:28;98596.41;;;30.27;35.47
31239;BME280;17871;31.584;74.450;2023-04-06T11:11:05;98595.88;;;30.47;35.32
31239;BME280;17871;31.584;74.450;2023-04-06T11:13:43;98592.63;;;30.44;35.40
31239;BME280;17871;31.584;74.450;2023-04-06T11:16:18;98596.63;;;30.24;37.26
31239;BME280;17871;31.584;74.450;2023-04-06T11:21:37;98588.50;;;30.27;37.53
31239;BME280;17871;31.584;74.450;2023-04-06T11:24:12;98595.25;;;30.18;38.50
31239;BME280;17871;31.584;74.450;2023-04-06T11:29:21;98589.66;;;30.10;39.24
31239;BME280;17871;31.584;74.450;2023-04-06T11:32:00;98590.00;;;30.06;40.30
31239;BME280;17871;31.584;74.450;2023-04-06T11:34:34;98589.13;;;30.18;39.34
31239;BME280;17871;31.584;74.450;2023-04-06T11:37:10;98597.25;;;30.15;39.68
31239;BME280;17871;31.584;74.450;2023-04-06T11:39:47;98589.25;;;30.04;39.27
31239;BME280;17871;31.584;74.450;2023-04-06T11:42:26;98595.91;;;29.97;39.29
31239;BME280;17871;31.584;74.450;2023-04-06T11:44:59;98602.13;;;29.96;40.38
31239;BME280;17871;31.584;74.450;2023-04-06T11:47:36;98600.13;;;30.12;40.27
31239;BME280;17871;31.584;74.450;2023-04-06T11:50:13;98605.19;;;29.90;40.07
31239;BME280;17871;31.584;74.450;2023-04-06T11:52:44;98599.53;;;29.81;40.56
31239;BME280;17871;31.584;74.450;2023-04-06T11:55:19;98603.47;;;29.89;39.96
31239;BME280;17871;31.584;74.450;2023-04-06T11:57:50;98600.00;;;30.01;39.59
31239;BME280;17871;31.584;74.450;2023-04-06T12:00:21;98608.75;;;29.89;39.82
31239;BME280;17871;31.584;74.450;2023-04-06T12:02:50;98608.03;;;29.87;39.87
31239;BME280;17871;31.584;74.450;2023-04-06T12:05:23;98606.59;;;29.81;38.83
31239;BME280;17871;31.584;74.450;2023-04-06T12:07:53;98612.97;;;29.91;38.47
31239;BME280;17871;31.584;74.450;2023-04-06T12:10:25;98606.72;;;29.79;39.23
31239;BME280;17871;31.584;74.450;2023-04-06T12:12:55;98610.06;;;29.81;39.45
31239;BME280;17871;31.584;74.450;2023-04-06T12:15:26;98609.94;;;29.58;38.64
31239;BME280;17871;31.584;74.450;2023-04-06T12:17:56;98602.59;;;29.75;39.69
31239;BME280;17871;31.584;74.450;2023-04-06T12:20:25;98609.84;;;29.59;39.28
31239;BME280;17871;31.584;74.450;2023-04-06T12:22:55;98615.69;;;29.77;39.55
31239;BME280;17871;31.584;74.450;2023-04-06T12:25:24;98609.22;;;29.68;40.23
31239;BME280;17871;31.584;74.450;2023-04-06T12:27:54;98610.22;;;29.41;40.27
31239;BME280;17871;31.584;74.450;2023-04-06T12:30:23;98606.53;;;29.43;40.31
31239;BME280;17871;31.584;74.450;2023-04-06T12:32:53;98616.19;;;29.30;39.65
31239;BME280;17871;31.584;74.450;2023-04-06T12:35:22;98617.06;;;29.43;40.02
31239;BME280;17871;31.584;74.450;2023-04-06T12:37:51;98614.03;;;29.49;40.58
31239;BME280;17871;31.584;74.450;2023-04-06T12:40:21;98617.06;;;29.43;40.62
31239;BME280;17871;31.584;74.450;2023-04-06T12:42:50;98625.22;;;29.12;41.37
31239;BME280;17871;31.584;74.450;2023-04-06T12:45:19;98624.00;;;29.17;40.76
31239;BME280;17871;31.584;74.450;2023-04-06T12:47:50;98628.25;;;29.06;41.20
31239;BME280;17871;31.584;74.450;2023-04-06T12:50:20;98626.56;;;29.05;41.81
31239;BME280;17871;31.584;74.450;2023-04-06T12:52:49;98626.03;;;29.00;42.44
31239;BME280;17871;31.584;74.450;2023-04-06T12:55:18;98629.13;;;28.92;42.95
31239;BME280;17871;31.584;74.450;2023-04-06T12:57:49;98627.38;;;28.78;42.96
31239;BME280;17871;31.584;74.450;2023-04-06T13:00:19;98633.09;;;28.85;43.38
31239;BME280;17871;31.584;74.450;2023-04-06T13:02:49;98632.63;;;28.78;43.75
31239;BME280;17871;31.584;74.450;2023-04-06T13:05:18;98634.69;;;28.59;44.00
31239;BME280;17871;31.584;74.450;2023-04-06T13:07:48;98635.47;;;28.61;44.17
31239;BME280;17871;31.584;74.450;2023-04-06T13:10:17;98637.97;;;28.63;44.41
31239;BME280;17871;31.584;74.450;2023-04-06T13:12:46;98640.53;;;28.64;44.52
31239;BME280;17871;31.584;74.450;2023-04-06T13:15:16;98638.84;;;28.35;45.47
31239;BME280;17871;31.584;74.450;2023-04-06T13:17:45;98645.41;;;28.28;45.27
31239;BME280;17871;31.584;74.450;2023-04-06T13:20:14;98643.63;;;28.28;46.05
31239;BME280;17871;31.584;74.450;2023-04-06T13:22:44;98641.66;;;28.18;46.91
31239;BME280;17871;31.584;74.450;2023-04-06T13:25:13;98645.31;;;28.00;46.58
31239;BME280;17871;31.584;74.450;2023-04-06T13:27:43;98650.69;;;27.98;47.47